createdAt,value
2018-11-12T00:01:06.084Z,12.40
2018-11-12T00:03:34.721Z,13.37
2018-11-12T00:06:05.573Z,12.60
2018-11-12T00:08:37.444Z,14.10
2018-11-12T00:11:11.027Z,11.93
2018-11-12T00:13:47.235Z,12.77
2018-11-12T00:16:21.523Z,13.07
2018-11-12T00:18:50.232Z,13.13
2018-11-12T00:21:18.863Z,11.37
2018-11-12T00:23:48.875Z,11.10
2018-11-12T00:26:17.329Z,14.47
2018-11-12T00:28:51.961Z,13.60
2018-11-12T00:31:20.478Z,10.63
2018-11-12T00:33:49.505Z,13.53
2018-11-12T00:36:19.961Z,15.77
2018-11-12T00:38:48.544Z,14.37
2018-11-12T00:41:28.077Z,13.83
2018-11-12T00:43:56.635Z,12.37
2018-11-12T00:46:35.697Z,14.03
2018-11-12T00:49:04.210Z,11.03
2018-11-12T00:51:33.667Z,12.30
2018-11-12T00:54:03.302Z,13.90
2018-11-12T00:56:35.123Z,13.73
2018-11-12T00:59:09.799Z,10.87
2018-11-12T01:01:38.534Z,9.90
2018-11-12T01:04:13.853Z,10.10
2018-11-12T01:06:44.345Z,9.97
2018-11-12T01:09:13.380Z,9.57
2018-11-12T01:11:42.952Z,13.20
2018-11-12T01:14:11.641Z,12.40
2018-11-12T01:16:40.347Z,10.17
2018-11-12T01:19:08.835Z,9.33
2018-11-12T01:21:38.552Z,7.53
2018-11-12T01:24:07.110Z,8.90
2018-11-12T01:26:36.575Z,10.23
2018-11-12T01:29:06.237Z,7.53
2018-11-12T01:31:46.662Z,7.47
2018-11-12T01:34:21.906Z,8.13
2018-11-12T01:36:54.308Z,9.50
2018-11-12T01:39:22.978Z,7.70
2018-11-12T01:41:52.470Z,6.90
2018-11-12T01:44:25.736Z,5.83
2018-11-12T01:47:00.062Z,9.13
2018-11-12T01:49:32.710Z,4.40
2018-11-12T01:52:06.052Z,6.80
2018-11-12T01:54:35.722Z,5.13
2018-11-12T01:57:04.362Z,6.30
2018-11-12T01:59:35.176Z,6.90
2018-11-12T02:02:03.861Z,4.60
2018-11-12T02:04:32.414Z,5.23
2018-11-12T02:07:01.108Z,4.40
2018-11-12T02:09:30.573Z,5.87
2018-11-12T02:12:00.104Z,5.40
2018-11-12T02:14:34.116Z,7.13
2018-11-12T02:17:08.741Z,6.30
2018-11-12T02:19:37.246Z,5.40
2018-11-12T02:22:12.218Z,5.73
2018-11-12T02:24:40.589Z,8.83
2018-11-12T02:27:08.965Z,6.43
2018-11-12T02:29:40.561Z,6.40
2018-11-12T02:32:12.499Z,5.53
2018-11-12T02:34:43.939Z,5.83
2018-11-12T02:37:19.049Z,4.97
2018-11-12T02:39:47.608Z,6.20
2018-11-12T02:42:19.123Z,5.17
2018-11-12T02:44:48.660Z,7.53
2018-11-12T02:47:20.682Z,6.60
2018-11-12T02:49:50.124Z,6.17
2018-11-12T02:52:18.768Z,6.00
2018-11-12T02:54:48.287Z,4.20
2018-11-12T02:57:17.840Z,7.03
2018-11-12T02:59:46.520Z,5.63
2018-11-12T03:02:15.989Z,5.63
2018-11-12T03:04:44.697Z,5.80
2018-11-12T03:07:15.069Z,6.17
2018-11-12T03:09:43.709Z,9.30
2018-11-12T03:12:12.406Z,5.87
2018-11-12T03:14:45.528Z,7.63
2018-11-12T03:17:14.289Z,7.90
2018-11-12T03:19:43.749Z,5.67
2018-11-12T03:22:16.139Z,5.13
2018-11-12T03:24:45.965Z,6.70
2018-11-12T03:27:18.551Z,6.67
2018-11-12T03:29:50.530Z,7.67
2018-11-12T03:32:19.151Z,5.03
2018-11-12T03:34:52.696Z,6.30
2018-11-12T03:37:22.278Z,7.33
2018-11-12T03:39:53.845Z,6.03
2018-11-12T03:42:27.984Z,5.83
2018-11-12T03:44:57.719Z,6.93
2018-11-12T03:47:38.019Z,5.67
2018-11-12T03:50:10.661Z,6.60
2018-11-12T03:52:45.801Z,4.27
2018-11-12T03:58:08.596Z,4.73
2018-11-12T04:00:38.962Z,6.60
2018-11-12T04:03:07.271Z,4.13
2018-11-12T04:05:35.894Z,4.60
2018-11-12T04:08:04.672Z,5.50
2018-11-12T04:10:33.266Z,5.40
2018-11-12T04:13:04.923Z,7.20
2018-11-12T04:15:37.018Z,5.83
2018-11-12T04:18:11.219Z,7.10
2018-11-12T04:20:43.198Z,7.90
2018-11-12T04:23:12.713Z,4.53
2018-11-12T04:25:42.220Z,7.00
2018-11-12T04:28:14.604Z,5.13
2018-11-12T04:30:43.258Z,6.10
2018-11-12T04:33:11.918Z,8.80
2018-11-12T04:35:46.006Z,5.60
2018-11-12T04:38:14.663Z,4.33
2018-11-12T04:40:59.458Z,8.80
2018-11-12T04:43:29.115Z,7.73
2018-11-12T04:46:01.764Z,9.17
2018-11-12T04:48:30.622Z,5.60
2018-11-12T04:51:00.334Z,5.93
2018-11-12T04:53:45.061Z,8.53
2018-11-12T04:56:13.686Z,10.77
2018-11-12T04:58:44.410Z,5.67
2018-11-12T05:01:13.930Z,5.27
2018-11-12T05:03:42.732Z,5.03
2018-11-12T05:06:17.220Z,5.87
2018-11-12T05:08:49.307Z,9.03
2018-11-12T05:11:22.153Z,8.50
2018-11-12T05:13:54.040Z,8.47
2018-11-12T05:16:30.379Z,9.70
2018-11-12T05:18:58.807Z,7.20
2018-11-12T05:21:28.358Z,7.67
2018-11-12T05:24:09.393Z,8.77
2018-11-12T05:26:38.161Z,7.33
2018-11-12T05:29:07.968Z,7.20
2018-11-12T05:31:36.674Z,6.70
2018-11-12T05:34:05.753Z,6.90
2018-11-12T05:36:34.309Z,9.53
2018-11-12T05:39:03.098Z,10.23
2018-11-12T05:41:31.681Z,5.83
2018-11-12T05:44:03.686Z,9.80
2018-11-12T05:46:33.153Z,7.80
2018-11-12T05:49:01.845Z,6.47
2018-11-12T05:51:30.575Z,7.17
2018-11-12T05:53:59.191Z,6.87
2018-11-12T05:56:27.921Z,7.70
2018-11-12T05:58:57.592Z,6.83
2018-11-12T06:01:31.623Z,4.93
2018-11-12T06:04:06.482Z,4.57
2018-11-12T06:06:34.934Z,8.10
2018-11-12T06:09:04.754Z,7.37
2018-11-12T06:11:38.914Z,7.83
2018-11-12T06:14:08.952Z,6.90
2018-11-12T06:16:37.480Z,9.63
2018-11-12T06:19:11.739Z,7.87
2018-11-12T06:21:40.182Z,5.60
2018-11-12T06:24:09.684Z,8.53
2018-11-12T06:26:38.424Z,6.33
2018-11-12T06:29:07.949Z,7.10
2018-11-12T06:31:36.560Z,6.73
2018-11-12T06:34:05.889Z,9.10
2018-11-12T06:36:34.492Z,5.47
2018-11-12T06:39:03.345Z,6.83
2018-11-12T06:41:36.290Z,6.80
2018-11-12T06:44:08.966Z,7.43
2018-11-12T06:46:41.124Z,8.90
2018-11-12T06:49:09.758Z,7.90
2018-11-12T06:51:41.362Z,7.87
2018-11-12T06:54:10.030Z,10.20
2018-11-12T06:56:41.121Z,8.03
2018-11-12T06:59:10.548Z,7.90
2018-11-12T07:01:40.013Z,5.77
2018-11-12T07:04:08.792Z,6.17
2018-11-12T07:06:37.827Z,7.27
2018-11-12T07:09:09.837Z,6.37
2018-11-12T07:11:38.632Z,7.67
2018-11-12T07:14:07.250Z,6.80
2018-11-12T07:16:37.106Z,7.77
2018-11-12T07:19:06.636Z,8.93
2018-11-12T07:21:35.028Z,8.33
2018-11-12T07:24:04.447Z,7.07
2018-11-12T07:26:33.216Z,8.33
2018-11-12T07:29:01.779Z,7.07
2018-11-12T07:31:30.595Z,7.93
2018-11-12T07:33:59.114Z,6.50
2018-11-12T07:36:27.881Z,10.37
2018-11-12T07:38:57.005Z,7.37
2018-11-12T07:41:25.707Z,9.27
2018-11-12T07:43:54.303Z,8.97
2018-11-12T07:46:23.038Z,9.07
2018-11-12T07:48:52.610Z,9.20
2018-11-12T07:51:21.262Z,8.77
2018-11-12T07:54:02.551Z,10.00
2018-11-12T07:56:36.975Z,9.10
2018-11-12T07:59:06.486Z,13.30
2018-11-12T08:01:35.171Z,10.43
2018-11-12T08:04:04.925Z,11.50
2018-11-12T08:06:38.906Z,9.20
2018-11-12T08:09:08.826Z,9.37
2018-11-12T08:11:44.580Z,8.63
2018-11-12T08:14:17.515Z,13.27
2018-11-12T08:16:47.034Z,11.57
2018-11-12T08:19:21.711Z,13.93
2018-11-12T08:21:51.242Z,10.73
2018-11-12T08:24:21.900Z,12.17
2018-11-12T08:26:50.469Z,12.30
2018-11-12T08:29:19.083Z,13.43
2018-11-12T08:31:47.861Z,16.50
2018-11-12T08:34:16.555Z,13.53
2018-11-12T08:37:02.444Z,12.20
2018-11-12T08:39:31.177Z,12.80
2018-11-12T08:41:59.860Z,10.77
2018-11-12T08:44:32.021Z,10.47
2018-11-12T08:47:06.718Z,9.47
2018-11-12T08:49:39.411Z,10.13
2018-11-12T08:52:08.955Z,10.47
2018-11-12T08:54:37.766Z,10.07
2018-11-12T08:57:06.164Z,10.17
2018-11-12T08:59:41.714Z,11.77
2018-11-12T09:02:12.082Z,9.43
2018-11-12T09:04:40.870Z,12.37
2018-11-12T09:07:21.176Z,9.83
2018-11-12T09:09:53.329Z,9.37
2018-11-12T09:12:24.088Z,11.50
2018-11-12T09:14:52.458Z,11.53
2018-11-12T09:17:24.720Z,13.30
2018-11-12T09:20:00.942Z,12.30
2018-11-12T09:22:29.741Z,14.03
2018-11-12T09:25:13.070Z,18.87
2018-11-12T09:27:44.897Z,12.57
2018-11-12T09:30:18.766Z,13.77
2018-11-12T09:32:47.402Z,14.30
2018-11-12T09:35:17.857Z,14.57
2018-11-12T09:37:47.953Z,16.27
2018-11-12T09:40:29.572Z,14.33
2018-11-12T09:42:58.287Z,14.10
2018-11-12T09:48:31.530Z,15.37
2018-11-12T09:54:05.565Z,13.70
2018-11-12T09:56:35.957Z,17.57
2018-11-12T09:59:04.795Z,18.10
2018-11-12T10:01:33.816Z,16.87
2018-11-12T10:04:02.852Z,15.37
2018-11-12T10:06:32.874Z,14.40
2018-11-12T10:09:02.258Z,15.87
2018-11-12T10:11:31.779Z,16.33
2018-11-12T10:14:02.987Z,16.90
2018-11-12T10:16:34.586Z,16.30
2018-11-12T10:19:06.186Z,15.63
2018-11-12T10:21:34.580Z,16.87
2018-11-12T10:24:03.267Z,18.43
2018-11-12T10:26:32.056Z,15.47
2018-11-12T10:29:00.710Z,17.97
2018-11-12T10:31:31.379Z,20.30
2018-11-12T10:34:00.933Z,20.30
2018-11-12T10:36:29.629Z,20.93
2018-11-12T10:39:06.842Z,21.87
2018-11-12T10:41:39.335Z,24.73
2018-11-12T10:44:08.077Z,28.77
2018-11-12T10:46:36.610Z,28.60
2018-11-12T10:49:08.648Z,27.97
2018-11-12T10:51:39.318Z,30.90
2018-11-12T10:54:08.467Z,30.60
2018-11-12T10:56:37.940Z,32.27
2018-11-12T10:59:06.726Z,31.03
2018-11-12T11:01:40.675Z,34.57
2018-11-12T11:04:19.632Z,31.90
2018-11-12T11:06:53.786Z,30.63
2018-11-12T11:09:23.708Z,32.77
2018-11-12T11:11:53.187Z,27.60
2018-11-12T11:14:21.946Z,20.30
2018-11-12T11:16:54.239Z,24.77
2018-11-12T11:19:26.612Z,21.57
2018-11-12T11:21:55.326Z,18.33
2018-11-12T11:24:23.913Z,18.97
2018-11-12T11:26:52.446Z,16.67
2018-11-12T11:29:27.552Z,20.83
2018-11-12T11:31:58.378Z,19.27
2018-11-12T11:34:33.925Z,17.27
2018-11-12T11:37:03.582Z,18.33
2018-11-12T11:39:38.679Z,17.13
2018-11-12T11:42:08.305Z,17.23
2018-11-12T11:44:43.079Z,13.80
2018-11-12T11:47:13.506Z,18.00
2018-11-12T11:49:43.452Z,16.43
2018-11-12T11:52:18.099Z,17.73
2018-11-12T11:54:46.579Z,14.97
2018-11-12T11:57:16.237Z,16.83
2018-11-12T11:59:50.485Z,21.57
2018-11-12T12:02:22.938Z,17.23
2018-11-12T12:04:53.561Z,19.87
2018-11-12T12:07:25.999Z,18.23
2018-11-12T12:09:55.485Z,19.00
2018-11-12T12:12:29.673Z,20.00
2018-11-12T12:14:58.184Z,16.63
2018-11-12T12:17:40.415Z,16.97
2018-11-12T12:20:14.123Z,16.43
2018-11-12T12:22:42.719Z,12.93
2018-11-12T12:25:15.614Z,15.03
2018-11-12T12:27:44.980Z,16.07
2018-11-12T12:30:17.574Z,16.57
2018-11-12T12:32:47.939Z,13.27
2018-11-12T12:35:23.513Z,14.33
2018-11-12T12:37:53.867Z,13.97
2018-11-12T12:40:26.597Z,15.07
2018-11-12T12:42:58.488Z,11.27
2018-11-12T12:45:36.949Z,11.33
2018-11-12T12:48:05.349Z,12.30
2018-11-12T12:50:38.021Z,11.27
2018-11-12T12:53:06.751Z,11.30
2018-11-12T12:55:35.197Z,10.23
2018-11-12T12:58:03.694Z,13.73
2018-11-12T13:00:39.687Z,13.73
2018-11-12T13:03:08.483Z,12.77
2018-11-12T13:05:37.251Z,12.80
2018-11-12T13:08:05.851Z,12.63
2018-11-12T13:10:34.607Z,13.50
2018-11-12T13:13:03.319Z,15.67
2018-11-12T13:15:35.567Z,18.73
2018-11-12T13:18:04.245Z,18.90
2018-11-12T13:20:32.950Z,17.07
2018-11-12T13:23:02.982Z,18.10
2018-11-12T13:25:33.619Z,15.10
2018-11-12T13:28:25.064Z,18.63
2018-11-12T13:30:58.947Z,16.73
2018-11-12T13:33:28.947Z,13.17
2018-11-12T13:35:58.963Z,14.90
2018-11-12T13:38:27.762Z,15.83
2018-11-12T13:40:58.300Z,16.00
2018-11-12T13:43:30.447Z,13.80
2018-11-12T13:45:59.148Z,13.77
2018-11-12T13:48:27.922Z,16.47
2018-11-12T13:51:03.638Z,14.17
2018-11-12T13:53:33.428Z,14.43
2018-11-12T13:56:02.135Z,14.40
2018-11-12T13:58:34.442Z,15.47
2018-11-12T14:01:03.242Z,15.50
2018-11-12T14:03:33.028Z,14.73
2018-11-12T14:06:01.651Z,16.93
2018-11-12T14:08:35.848Z,15.83
2018-11-12T14:11:04.185Z,16.90
2018-11-12T14:13:40.598Z,16.80
2018-11-12T14:16:09.070Z,19.73
2018-11-12T14:18:40.662Z,21.60
2018-11-12T14:21:09.451Z,21.57
2018-11-12T14:23:45.616Z,22.70
2018-11-12T14:26:19.012Z,20.43
2018-11-12T14:28:53.285Z,16.27
2018-11-12T14:31:29.268Z,16.97
2018-11-12T14:33:57.862Z,12.93
2018-11-12T14:36:26.383Z,16.83
2018-11-12T14:39:07.392Z,14.93
2018-11-12T14:41:36.076Z,13.97
2018-11-12T14:44:05.602Z,16.10
2018-11-12T14:46:36.381Z,18.23
2018-11-12T14:49:05.882Z,19.30
2018-11-12T14:51:34.527Z,22.23
2018-11-12T14:54:16.313Z,19.60
2018-11-12T14:56:50.503Z,19.63
2018-11-12T14:59:19.009Z,24.70
2018-11-12T15:01:47.738Z,23.03
2018-11-12T15:04:24.001Z,22.13
2018-11-12T15:06:58.763Z,22.20
2018-11-12T15:09:32.237Z,25.80
2018-11-12T15:12:06.123Z,21.50
2018-11-12T15:14:34.993Z,27.83
2018-11-12T15:17:05.671Z,20.37
2018-11-12T15:19:36.471Z,23.10
2018-11-12T15:22:08.339Z,23.47
2018-11-12T15:24:37.960Z,22.93
2018-11-12T15:27:07.319Z,24.77
2018-11-12T15:29:41.986Z,27.87
2018-11-12T15:32:16.188Z,24.57
2018-11-12T15:37:56.893Z,19.67
2018-11-12T15:40:26.508Z,22.40
2018-11-12T15:45:48.443Z,21.07
2018-11-12T15:48:17.930Z,22.50
2018-11-12T15:50:46.687Z,24.53
2018-11-12T15:53:15.318Z,21.50
2018-11-12T15:55:55.341Z,25.90
2018-11-12T15:58:23.864Z,22.67
2018-11-12T16:00:53.226Z,26.97
2018-11-12T16:03:26.054Z,28.13
2018-11-12T16:05:59.731Z,27.50
2018-11-12T16:08:35.107Z,26.43
2018-11-12T16:11:09.386Z,29.10
2018-11-12T16:13:38.140Z,27.70
2018-11-12T16:16:06.782Z,21.57
2018-11-12T16:18:35.531Z,21.67
2018-11-12T16:21:04.265Z,31.67
2018-11-12T16:23:32.942Z,25.33
2018-11-12T16:26:01.595Z,21.57
2018-11-12T16:28:30.210Z,22.37
2018-11-12T16:31:04.820Z,22.30
2018-11-12T16:33:35.354Z,18.73
2018-11-12T16:36:04.910Z,23.23
2018-11-12T16:38:33.616Z,20.57
2018-11-12T16:41:04.279Z,18.37
2018-11-12T16:43:32.839Z,20.90
2018-11-12T16:46:05.722Z,16.93
2018-11-12T16:48:35.202Z,18.40
2018-11-12T16:51:03.833Z,16.77
2018-11-12T16:53:32.537Z,18.83
2018-11-12T16:56:01.298Z,16.83
2018-11-12T16:58:32.751Z,16.47
2018-11-12T17:01:05.116Z,17.03
2018-11-12T17:03:34.662Z,18.30
2018-11-12T17:06:03.357Z,17.43
2018-11-12T17:08:34.101Z,22.00
2018-11-12T17:11:06.122Z,17.20
2018-11-12T17:13:34.774Z,18.00
2018-11-12T17:16:05.788Z,19.83
2018-11-12T17:18:34.197Z,21.07
2018-11-12T17:21:08.763Z,24.90
2018-11-12T17:23:37.298Z,27.37
2018-11-12T17:26:10.887Z,33.70
2018-11-12T17:28:39.615Z,30.30
2018-11-12T17:31:08.251Z,23.30
2018-11-12T17:33:37.031Z,25.23
2018-11-12T17:36:13.219Z,18.27
2018-11-12T17:38:45.855Z,22.70
2018-11-12T17:41:22.082Z,26.33
2018-11-12T17:43:54.227Z,23.23
2018-11-12T17:46:26.235Z,27.87
2018-11-12T17:48:54.827Z,26.03
2018-11-12T17:51:23.529Z,24.07
2018-11-12T17:53:52.308Z,24.27
2018-11-12T17:56:21.027Z,29.60
2018-11-12T17:58:49.586Z,34.80
2018-11-12T18:01:25.064Z,30.67
2018-11-12T18:03:57.612Z,28.10
2018-11-12T18:06:26.339Z,31.60
2018-11-12T18:08:58.294Z,29.67
2018-11-12T18:11:28.212Z,24.90
2018-11-12T18:13:56.860Z,25.60
2018-11-12T18:16:28.878Z,26.27
2018-11-12T18:18:57.528Z,24.17
2018-11-12T18:21:31.785Z,24.27
2018-11-12T18:24:00.289Z,24.63
2018-11-12T18:26:32.590Z,21.47
2018-11-12T18:29:08.874Z,19.70
2018-11-12T18:31:37.413Z,20.63
2018-11-12T18:34:06.539Z,21.83
2018-11-12T18:36:35.296Z,22.83
2018-11-12T18:39:04.684Z,20.00
2018-11-12T18:41:33.539Z,24.87
2018-11-12T18:44:07.583Z,21.23
2018-11-12T18:46:43.171Z,22.07
2018-11-12T18:49:18.057Z,18.47
2018-11-12T18:51:50.187Z,19.63
2018-11-12T18:54:22.675Z,22.03
2018-11-12T18:56:51.253Z,22.57
2018-11-12T18:59:19.990Z,24.73
2018-11-12T19:01:49.546Z,23.50
2018-11-12T19:04:18.179Z,22.10
2018-11-12T19:06:46.834Z,27.37
2018-11-12T19:09:15.536Z,22.47
2018-11-12T19:11:47.446Z,20.70
2018-11-12T19:14:18.264Z,23.03
2018-11-12T19:16:52.907Z,24.07
2018-11-12T19:19:25.060Z,22.37
2018-11-12T19:21:59.210Z,28.57
2018-11-12T19:24:27.748Z,30.13
2018-11-12T19:27:00.158Z,28.43
2018-11-12T19:29:28.774Z,30.20
2018-11-12T19:31:57.527Z,27.43
2018-11-12T19:34:26.966Z,25.87
2018-11-12T19:36:58.910Z,27.30
2018-11-12T19:39:40.718Z,25.13
2018-11-12T19:42:14.378Z,25.80
2018-11-12T19:44:48.549Z,27.67
2018-11-12T19:47:17.010Z,29.83
2018-11-12T19:49:46.069Z,24.93
2018-11-12T19:52:18.537Z,24.47
2018-11-12T19:54:52.696Z,27.60
2018-11-12T19:57:21.326Z,25.40
2018-11-12T19:59:49.868Z,29.13
2018-11-12T20:02:22.341Z,30.37
2018-11-12T20:04:50.973Z,31.03
2018-11-12T20:07:24.392Z,24.57
2018-11-12T20:09:55.099Z,25.83
2018-11-12T20:12:23.566Z,22.33
2018-11-12T20:14:53.062Z,27.33
2018-11-12T20:17:21.862Z,25.17
2018-11-12T20:19:53.778Z,24.53
2018-11-12T20:22:23.330Z,24.23
2018-11-12T20:24:51.957Z,24.27
2018-11-12T20:27:26.964Z,27.93
2018-11-12T20:29:55.419Z,23.90
2018-11-12T20:32:24.185Z,22.00
2018-11-12T20:34:53.007Z,20.70
2018-11-12T20:37:27.752Z,26.17
2018-11-12T20:39:56.380Z,23.37
2018-11-12T20:42:25.036Z,19.33
2018-11-12T20:44:53.766Z,18.60
2018-11-12T20:47:25.242Z,21.73
2018-11-12T20:49:55.118Z,20.67
2018-11-12T20:52:27.239Z,20.50
2018-11-12T20:55:00.219Z,20.77
2018-11-12T20:57:32.364Z,24.13
2018-11-12T21:00:16.334Z,21.37
2018-11-12T21:02:57.980Z,19.83
2018-11-12T21:05:35.132Z,20.73
2018-11-12T21:08:09.092Z,20.23
2018-11-12T21:10:41.002Z,19.33
2018-11-12T21:13:23.038Z,19.40
2018-11-12T21:15:53.177Z,20.13
2018-11-12T21:18:26.763Z,19.13
2018-11-12T21:20:56.684Z,20.47
2018-11-12T21:23:26.912Z,23.20
2018-11-12T21:25:56.356Z,22.60
2018-11-12T21:28:25.970Z,22.57
2018-11-12T21:30:54.700Z,26.07
2018-11-12T21:33:23.367Z,22.83
2018-11-12T21:35:53.146Z,24.33
2018-11-12T21:38:26.071Z,23.47
2018-11-12T21:40:55.904Z,20.90
2018-11-12T21:43:26.902Z,23.80
2018-11-12T21:45:55.136Z,21.37
2018-11-12T21:48:24.662Z,25.27
2018-11-12T21:50:55.454Z,23.70
2018-11-12T21:53:42.081Z,25.57
2018-11-12T21:56:18.508Z,20.73
2018-11-12T21:58:52.806Z,19.07
2018-11-12T22:01:22.659Z,20.23
2018-11-12T22:03:51.342Z,23.77
2018-11-12T22:06:19.955Z,21.73
2018-11-12T22:08:59.048Z,22.03
2018-11-12T22:11:27.539Z,22.13
2018-11-12T22:16:50.319Z,21.57
2018-11-12T22:19:19.872Z,21.80
2018-11-12T22:21:54.399Z,25.73
2018-11-12T22:24:24.930Z,26.27
2018-11-12T22:26:53.581Z,30.07
2018-11-12T22:29:25.853Z,31.97
2018-11-12T22:31:58.397Z,30.20
2018-11-12T22:34:32.016Z,33.27
2018-11-12T22:37:06.180Z,31.67
2018-11-12T22:39:34.879Z,32.37
2018-11-12T22:42:03.511Z,37.17
2018-11-12T22:44:32.130Z,33.80
2018-11-12T22:47:01.543Z,37.37
2018-11-12T22:49:34.489Z,34.17
2018-11-12T22:52:03.284Z,38.30
2018-11-12T22:54:33.073Z,36.83
2018-11-12T22:57:01.723Z,35.73
2018-11-12T22:59:30.416Z,38.37
2018-11-12T23:02:01.192Z,40.93
2018-11-12T23:04:30.001Z,41.67
2018-11-12T23:07:03.487Z,37.30
2018-11-12T23:09:35.854Z,35.40
2018-11-12T23:12:09.899Z,35.83
2018-11-12T23:14:43.435Z,42.47
2018-11-12T23:17:17.715Z,34.67
2018-11-12T23:19:46.705Z,34.03
2018-11-12T23:22:15.220Z,35.83
2018-11-12T23:24:44.023Z,33.83
2018-11-12T23:27:12.704Z,32.60
2018-11-12T23:29:41.315Z,28.97
2018-11-12T23:32:09.969Z,25.83
2018-11-12T23:34:38.683Z,26.73
2018-11-12T23:37:15.308Z,30.40
2018-11-12T23:39:45.925Z,26.90
2018-11-12T23:42:14.502Z,23.33
2018-11-12T23:44:49.972Z,26.00
2018-11-12T23:47:18.514Z,22.93
2018-11-12T23:49:47.122Z,26.10
2018-11-12T23:52:16.706Z,24.27
2018-11-12T23:54:45.388Z,24.50
2018-11-12T23:57:17.380Z,26.13
2018-11-12T23:59:46.036Z,23.33
